sensor_id;sensor_type;location;lat;lon;timestamp;temperature;humidity
21805;DHT22;11064;47.102;15.452;2022-07-17T05:03:34;30.10;49.80
21805;DHT22;11064;47.102;15.452;2022-07-17T05:06:00;30.30;47.10
21805;DHT22;11064;47.102;15.452;2022-07-17T05:08:25;30.40;46.70
21805;DHT22;11064;47.102;15.452;2022-07-17T05:10:51;30.60;46.10
21805;DHT22;11064;47.102;15.452;2022-07-17T05:13:17;31.30;46.70
21805;DHT22;11064;47.102;15.452;2022-07-17T05:15:43;31.70;44.80
21805;DHT22;11064;47.102;15.452;2022-07-17T05:18:08;32.60;42.40
21805;DHT22;11064;47.102;15.452;2022-07-17T05:20:35;32.80;39.80
21805;DHT22;11064;47.102;15.452;2022-07-17T05:23:00;32.70;40.50
21805;DHT22;11064;47.102;15.452;2022-07-17T05:25:26;32.90;40.40
21805;DHT22;11064;47.102;15.452;2022-07-17T05:27:52;33.50;39.40
21805;DHT22;11064;47.102;15.452;2022-07-17T05:30:18;34.00;38.70
21805;DHT22;11064;47.102;15.452;2022-07-17T05:32:43;34.20;37.70
21805;DHT22;11064;47.102;15.452;2022-07-17T05:35:09;34.10;36.60
21805;DHT22;11064;47.102;15.452;2022-07-17T05:37:35;33.60;37.00
21805;DHT22;11064;47.102;15.452;2022-07-17T05:40:01;32.80;37.80
21805;DHT22;11064;47.102;15.452;2022-07-17T05:42:26;32.80;39.40
21805;DHT22;11064;47.102;15.452;2022-07-17T05:44:52;33.00;39.60
21805;DHT22;11064;47.102;15.452;2022-07-17T05:47:18;33.10;38.30
21805;DHT22;11064;47.102;15.452;2022-07-17T05:49:43;32.40;39.00
21805;DHT22;11064;47.102;15.452;2022-07-17T05:52:09;32.20;39.90
21805;DHT22;11064;47.102;15.452;2022-07-17T05:54:35;32.30;40.30
21805;DHT22;11064;47.102;15.452;2022-07-17T05:57:01;32.30;40.50
21805;DHT22;11064;47.102;15.452;2022-07-17T05:59:26;31.70;40.90
21805;DHT22;11064;47.102;15.452;2022-07-17T06:01:52;31.60;41.20
21805;DHT22;11064;47.102;15.452;2022-07-17T06:04:18;31.00;43.00
21805;DHT22;11064;47.102;15.452;2022-07-17T06:06:44;30.30;43.50
21805;DHT22;11064;47.102;15.452;2022-07-17T06:09:09;29.90;44.40
21805;DHT22;11064;47.102;15.452;2022-07-17T06:11:35;30.30;45.10
21805;DHT22;11064;47.102;15.452;2022-07-17T06:14:01;29.70;45.70
21805;DHT22;11064;47.102;15.452;2022-07-17T06:16:27;29.30;46.50
21805;DHT22;11064;47.102;15.452;2022-07-17T06:18:52;29.00;46.10
21805;DHT22;11064;47.102;15.452;2022-07-17T06:21:18;28.40;46.00
21805;DHT22;11064;47.102;15.452;2022-07-17T06:23:44;28.20;47.50
21805;DHT22;11064;47.102;15.452;2022-07-17T06:26:10;27.00;48.20
21805;DHT22;11064;47.102;15.452;2022-07-17T06:28:35;25.30;49.80
21805;DHT22;11064;47.102;15.452;2022-07-17T06:31:01;23.50;54.60
21805;DHT22;11064;47.102;15.452;2022-07-17T06:33:27;22.60;59.90
21805;DHT22;11064;47.102;15.452;2022-07-17T06:35:52;22.10;62.60
21805;DHT22;11064;47.102;15.452;2022-07-17T06:38:18;21.80;62.40
21805;DHT22;11064;47.102;15.452;2022-07-17T06:40:44;21.30;61.90
21805;DHT22;11064;47.102;15.452;2022-07-17T06:43:10;21.20;63.50
21805;DHT22;11064;47.102;15.452;2022-07-17T06:45:36;21.00;67.10
21805;DHT22;11064;47.102;15.452;2022-07-17T06:48:02;21.20;68.50
21805;DHT22;11064;47.102;15.452;2022-07-17T06:50:28;20.90;66.40
21805;DHT22;11064;47.102;15.452;2022-07-17T06:52:54;20.80;65.70
21805;DHT22;11064;47.102;15.452;2022-07-17T06:55:20;20.80;67.30
21805;DHT22;11064;47.102;15.452;2022-07-17T06:57:45;20.70;66.80
21805;DHT22;11064;47.102;15.452;2022-07-17T07:00:11;20.90;67.90
21805;DHT22;11064;47.102;15.452;2022-07-17T07:02:37;21.00;67.40
21805;DHT22;11064;47.102;15.452;2022-07-17T07:05:03;21.00;66.00
21805;DHT22;11064;47.102;15.452;2022-07-17T07:07:30;21.00;64.60
21805;DHT22;11064;47.102;15.452;2022-07-17T07:09:56;20.70;63.90
21805;DHT22;11064;47.102;15.452;2022-07-17T07:12:21;20.60;65.60
21805;DHT22;11064;47.102;15.452;2022-07-17T07:14:47;20.80;65.30
21805;DHT22;11064;47.102;15.452;2022-07-17T07:17:13;20.90;66.00
21805;DHT22;11064;47.102;15.452;2022-07-17T07:19:39;21.10;68.40
21805;DHT22;11064;47.102;15.452;2022-07-17T07:22:05;21.00;65.90
21805;DHT22;11064;47.102;15.452;2022-07-17T07:24:31;21.10;66.40
21805;DHT22;11064;47.102;15.452;2022-07-17T07:26:56;20.90;64.40
21805;DHT22;11064;47.102;15.452;2022-07-17T07:29:22;21.10;64.20
21805;DHT22;11064;47.102;15.452;2022-07-17T07:31:48;21.10;65.90
21805;DHT22;11064;47.102;15.452;2022-07-17T07:34:14;21.20;69.20
21805;DHT22;11064;47.102;15.452;2022-07-17T07:36:39;21.10;67.90
21805;DHT22;11064;47.102;15.452;2022-07-17T07:39:05;21.40;68.00
21805;DHT22;11064;47.102;15.452;2022-07-17T07:41:31;21.40;68.40
21805;DHT22;11064;47.102;15.452;2022-07-17T07:43:57;21.50;69.30
21805;DHT22;11064;47.102;15.452;2022-07-17T07:46:22;21.60;66.70
21805;DHT22;11064;47.102;15.452;2022-07-17T07:48:48;21.60;65.00
21805;DHT22;11064;47.102;15.452;2022-07-17T07:51:14;21.50;68.20
21805;DHT22;11064;47.102;15.452;2022-07-17T07:53:39;21.60;65.50
21805;DHT22;11064;47.102;15.452;2022-07-17T07:56:05;21.60;65.30
21805;DHT22;11064;47.102;15.452;2022-07-17T07:58:31;21.70;65.90
21805;DHT22;11064;47.102;15.452;2022-07-17T08:00:57;21.90;67.20
21805;DHT22;11064;47.102;15.452;2022-07-17T08:03:23;21.80;66.00
21805;DHT22;11064;47.102;15.452;2022-07-17T08:05:48;21.90;67.00
21805;DHT22;11064;47.102;15.452;2022-07-17T08:08:14;22.00;64.90
21805;DHT22;11064;47.102;15.452;2022-07-17T08:10:40;22.00;67.80
21805;DHT22;11064;47.102;15.452;2022-07-17T08:13:06;22.20;66.10
21805;DHT22;11064;47.102;15.452;2022-07-17T08:15:31;22.30;66.50
21805;DHT22;11064;47.102;15.452;2022-07-17T08:17:57;22.00;62.70
21805;DHT22;11064;47.102;15.452;2022-07-17T08:20:23;21.90;71.40
21805;DHT22;11064;47.102;15.452;2022-07-17T08:22:49;22.00;68.40
21805;DHT22;11064;47.102;15.452;2022-07-17T08:25:15;22.00;66.60
21805;DHT22;11064;47.102;15.452;2022-07-17T08:27:42;21.90;67.90
21805;DHT22;11064;47.102;15.452;2022-07-17T08:30:10;21.60;65.00
21805;DHT22;11064;47.102;15.452;2022-07-17T08:32:37;21.90;65.90
21805;DHT22;11064;47.102;15.452;2022-07-17T08:35:04;21.70;65.70
21805;DHT22;11064;47.102;15.452;2022-07-17T08:37:29;21.90;69.10
21805;DHT22;11064;47.102;15.452;2022-07-17T08:39:56;22.00;67.00
21805;DHT22;11064;47.102;15.452;2022-07-17T08:42:22;22.20;66.40
21805;DHT22;11064;47.102;15.452;2022-07-17T08:44:48;22.20;67.70
21805;DHT22;11064;47.102;15.452;2022-07-17T08:47:15;22.10;64.60
21805;DHT22;11064;47.102;15.452;2022-07-17T08:49:44;22.10;65.10
21805;DHT22;11064;47.102;15.452;2022-07-17T08:52:12;22.30;68.70
21805;DHT22;11064;47.102;15.452;2022-07-17T08:54:38;22.40;66.00
21805;DHT22;11064;47.102;15.452;2022-07-17T08:57:04;22.50;64.70
21805;DHT22;11064;47.102;15.452;2022-07-17T08:59:30;22.80;65.40
21805;DHT22;11064;47.102;15.452;2022-07-17T09:01:59;23.00;66.40
21805;DHT22;11064;47.102;15.452;2022-07-17T09:04:25;23.10;63.00
21805;DHT22;11064;47.102;15.452;2022-07-17T09:07:04;22.90;62.50
21805;DHT22;11064;47.102;15.452;2022-07-17T09:09:32;22.90;65.10
21805;DHT22;11064;47.102;15.452;2022-07-17T09:12:00;22.80;62.40
21805;DHT22;11064;47.102;15.452;2022-07-17T09:14:37;22.70;60.60
21805;DHT22;11064;47.102;15.452;2022-07-17T09:17:05;22.50;61.40
21805;DHT22;11064;47.102;15.452;2022-07-17T09:19:50;22.60;65.90
21805;DHT22;11064;47.102;15.452;2022-07-17T09:22:23;22.90;69.30
21805;DHT22;11064;47.102;15.452;2022-07-17T09:24:55;23.20;68.70
21805;DHT22;11064;47.102;15.452;2022-07-17T09:30:09;23.20;65.60
21805;DHT22;11064;47.102;15.452;2022-07-17T09:32:39;23.40;67.00
21805;DHT22;11064;47.102;15.452;2022-07-17T09:35:08;23.30;60.00
21805;DHT22;11064;47.102;15.452;2022-07-17T09:37:35;23.10;62.00
21805;DHT22;11064;47.102;15.452;2022-07-17T09:40:08;23.20;62.00
21805;DHT22;11064;47.102;15.452;2022-07-17T09:42:34;23.40;61.60
21805;DHT22;11064;47.102;15.452;2022-07-17T09:45:03;23.60;65.10
21805;DHT22;11064;47.102;15.452;2022-07-17T09:47:30;23.60;64.80
21805;DHT22;11064;47.102;15.452;2022-07-17T09:49:57;23.50;61.50
21805;DHT22;11064;47.102;15.452;2022-07-17T09:52:26;23.50;58.90
21805;DHT22;11064;47.102;15.452;2022-07-17T09:54:54;23.40;60.20
21805;DHT22;11064;47.102;15.452;2022-07-17T09:57:26;23.40;61.60
21805;DHT22;11064;47.102;15.452;2022-07-17T09:59:54;23.50;59.80
21805;DHT22;11064;47.102;15.452;2022-07-17T10:02:21;23.20;58.70
21805;DHT22;11064;47.102;15.452;2022-07-17T10:04:48;23.20;64.10
21805;DHT22;11064;47.102;15.452;2022-07-17T10:07:14;23.30;62.30
21805;DHT22;11064;47.102;15.452;2022-07-17T10:09:40;23.50;59.50
21805;DHT22;11064;47.102;15.452;2022-07-17T10:12:07;23.60;62.20
21805;DHT22;11064;47.102;15.452;2022-07-17T10:14:34;23.80;62.50
21805;DHT22;11064;47.102;15.452;2022-07-17T10:17:12;24.10;63.70
21805;DHT22;11064;47.102;15.452;2022-07-17T10:19:49;24.40;59.50
21805;DHT22;11064;47.102;15.452;2022-07-17T10:22:16;24.40;56.20
21805;DHT22;11064;47.102;15.452;2022-07-17T10:25:11;24.30;56.50
21805;DHT22;11064;47.102;15.452;2022-07-17T10:27:46;24.30;59.00
21805;DHT22;11064;47.102;15.452;2022-07-17T10:30:12;24.40;59.20
21805;DHT22;11064;47.102;15.452;2022-07-17T10:32:39;24.30;60.10
21805;DHT22;11064;47.102;15.452;2022-07-17T10:35:09;24.30;61.20
21805;DHT22;11064;47.102;15.452;2022-07-17T10:42:46;24.60;57.90
21805;DHT22;11064;47.102;15.452;2022-07-17T10:50:23;25.30;58.10
21805;DHT22;11064;47.102;15.452;2022-07-17T10:53:00;25.40;56.40
21805;DHT22;11064;47.102;15.452;2022-07-17T10:55:26;25.50;53.70
21805;DHT22;11064;47.102;15.452;2022-07-17T10:57:52;25.00;54.00
21805;DHT22;11064;47.102;15.452;2022-07-17T11:00:19;25.00;55.70
21805;DHT22;11064;47.102;15.452;2022-07-17T11:02:45;25.00;57.20
21805;DHT22;11064;47.102;15.452;2022-07-17T11:05:12;25.40;57.60
21805;DHT22;11064;47.102;15.452;2022-07-17T11:07:58;25.70;55.10
21805;DHT22;11064;47.102;15.452;2022-07-17T11:10:27;25.50;52.50
21805;DHT22;11064;47.102;15.452;2022-07-17T11:12:55;25.40;53.90
21805;DHT22;11064;47.102;15.452;2022-07-17T11:15:38;25.20;54.80
21805;DHT22;11064;47.102;15.452;2022-07-17T11:18:19;25.40;57.10
21805;DHT22;11064;47.102;15.452;2022-07-17T11:20:59;25.60;56.10
21805;DHT22;11064;47.102;15.452;2022-07-17T11:23:31;25.50;57.30
21805;DHT22;11064;47.102;15.452;2022-07-17T11:33:50;26.40;55.20
21805;DHT22;11064;47.102;15.452;2022-07-17T11:38:49;26.00;54.80
21805;DHT22;11064;47.102;15.452;2022-07-17T11:41:18;26.00;54.90
21805;DHT22;11064;47.102;15.452;2022-07-17T11:43:45;26.00;55.70
21805;DHT22;11064;47.102;15.452;2022-07-17T11:46:12;25.70;57.60
21805;DHT22;11064;47.102;15.452;2022-07-17T11:48:41;25.80;58.70
21805;DHT22;11064;47.102;15.452;2022-07-17T11:51:07;25.90;56.90
21805;DHT22;11064;47.102;15.452;2022-07-17T11:53:35;25.80;56.80
21805;DHT22;11064;47.102;15.452;2022-07-17T11:56:04;25.80;55.70
21805;DHT22;11064;47.102;15.452;2022-07-17T11:58:44;25.20;55.40
21805;DHT22;11064;47.102;15.452;2022-07-17T12:01:10;25.20;56.80
21805;DHT22;11064;47.102;15.452;2022-07-17T12:03:36;25.20;57.50
21805;DHT22;11064;47.102;15.452;2022-07-17T12:06:02;25.10;58.50
21805;DHT22;11064;47.102;15.452;2022-07-17T12:08:28;25.10;62.40
21805;DHT22;11064;47.102;15.452;2022-07-17T12:11:05;25.10;60.30
21805;DHT22;11064;47.102;15.452;2022-07-17T12:13:43;25.10;56.40
21805;DHT22;11064;47.102;15.452;2022-07-17T12:19:16;24.60;58.10
21805;DHT22;11064;47.102;15.452;2022-07-17T12:24:37;24.90;57.70
21805;DHT22;11064;47.102;15.452;2022-07-17T12:27:07;25.10;58.40
21805;DHT22;11064;47.102;15.452;2022-07-17T12:29:33;25.40;56.70
21805;DHT22;11064;47.102;15.452;2022-07-17T12:32:10;25.30;55.60
21805;DHT22;11064;47.102;15.452;2022-07-17T12:34:42;25.50;56.90
21805;DHT22;11064;47.102;15.452;2022-07-17T12:37:19;25.40;55.00
21805;DHT22;11064;47.102;15.452;2022-07-17T12:39:46;25.50;57.10
21805;DHT22;11064;47.102;15.452;2022-07-17T12:42:16;25.40;55.50
21805;DHT22;11064;47.102;15.452;2022-07-17T12:44:43;25.60;54.70
21805;DHT22;11064;47.102;15.452;2022-07-17T12:47:09;25.50;54.50
21805;DHT22;11064;47.102;15.452;2022-07-17T12:49:35;25.50;55.60
21805;DHT22;11064;47.102;15.452;2022-07-17T12:52:01;25.50;56.70
21805;DHT22;11064;47.102;15.452;2022-07-17T12:54:27;25.60;57.00
21805;DHT22;11064;47.102;15.452;2022-07-17T12:56:53;25.70;56.40
21805;DHT22;11064;47.102;15.452;2022-07-17T12:59:19;25.70;54.80
21805;DHT22;11064;47.102;15.452;2022-07-17T13:01:45;25.90;55.90
21805;DHT22;11064;47.102;15.452;2022-07-17T13:04:14;26.00;55.90
21805;DHT22;11064;47.102;15.452;2022-07-17T13:06:39;26.00;55.30
21805;DHT22;11064;47.102;15.452;2022-07-17T13:09:05;26.20;54.90
21805;DHT22;11064;47.102;15.452;2022-07-17T13:11:31;25.80;54.40
21805;DHT22;11064;47.102;15.452;2022-07-17T13:13:57;25.80;54.70
21805;DHT22;11064;47.102;15.452;2022-07-17T13:16:23;25.90;55.80
21805;DHT22;11064;47.102;15.452;2022-07-17T13:18:49;25.90;55.50
21805;DHT22;11064;47.102;15.452;2022-07-17T13:21:15;26.20;56.00
21805;DHT22;11064;47.102;15.452;2022-07-17T13:23:40;26.10;54.60
21805;DHT22;11064;47.102;15.452;2022-07-17T13:26:07;26.10;54.90
21805;DHT22;11064;47.102;15.452;2022-07-17T13:28:33;26.00;55.10
21805;DHT22;11064;47.102;15.452;2022-07-17T13:30:58;25.90;55.00
21805;DHT22;11064;47.102;15.452;2022-07-17T13:33:25;25.80;55.20
21805;DHT22;11064;47.102;15.452;2022-07-17T13:35:51;25.80;55.40
21805;DHT22;11064;47.102;15.452;2022-07-17T13:38:17;26.00;55.50
21805;DHT22;11064;47.102;15.452;2022-07-17T13:40:43;26.10;55.30
21805;DHT22;11064;47.102;15.452;2022-07-17T13:43:09;26.00;54.20
21805;DHT22;11064;47.102;15.452;2022-07-17T13:45:34;26.20;54.70
21805;DHT22;11064;47.102;15.452;2022-07-17T13:48:00;26.20;55.10
21805;DHT22;11064;47.102;15.452;2022-07-17T13:50:27;26.30;53.20
21805;DHT22;11064;47.102;15.452;2022-07-17T13:52:53;26.00;54.00
21805;DHT22;11064;47.102;15.452;2022-07-17T13:55:19;26.00;55.00
21805;DHT22;11064;47.102;15.452;2022-07-17T13:57:45;26.00;53.80
21805;DHT22;11064;47.102;15.452;2022-07-17T14:00:11;26.30;52.90
21805;DHT22;11064;47.102;15.452;2022-07-17T14:02:38;26.40;52.80
21805;DHT22;11064;47.102;15.452;2022-07-17T14:05:05;26.40;54.30
21805;DHT22;11064;47.102;15.452;2022-07-17T14:07:32;26.20;54.20
21805;DHT22;11064;47.102;15.452;2022-07-17T14:09:58;26.10;53.40
21805;DHT22;11064;47.102;15.452;2022-07-17T14:12:23;26.10;54.90
21805;DHT22;11064;47.102;15.452;2022-07-17T14:14:49;26.40;55.40
21805;DHT22;11064;47.102;15.452;2022-07-17T14:17:15;26.60;53.50
21805;DHT22;11064;47.102;15.452;2022-07-17T14:19:44;26.60;52.80
21805;DHT22;11064;47.102;15.452;2022-07-17T14:22:10;26.50;54.60
21805;DHT22;11064;47.102;15.452;2022-07-17T14:24:36;26.50;54.60
21805;DHT22;11064;47.102;15.452;2022-07-17T14:27:02;26.50;53.60
21805;DHT22;11064;47.102;15.452;2022-07-17T14:29:28;26.60;53.30
21805;DHT22;11064;47.102;15.452;2022-07-17T14:31:56;26.50;53.20
21805;DHT22;11064;47.102;15.452;2022-07-17T14:34:22;26.50;54.50
21805;DHT22;11064;47.102;15.452;2022-07-17T14:36:48;26.20;54.70
21805;DHT22;11064;47.102;15.452;2022-07-17T14:39:14;26.30;55.10
21805;DHT22;11064;47.102;15.452;2022-07-17T14:41:40;26.00;55.10
21805;DHT22;11064;47.102;15.452;2022-07-17T14:44:07;26.10;55.50
21805;DHT22;11064;47.102;15.452;2022-07-17T14:46:33;26.20;56.00
21805;DHT22;11064;47.102;15.452;2022-07-17T14:48:59;26.30;55.90
21805;DHT22;11064;47.102;15.452;2022-07-17T14:51:24;26.10;56.10
21805;DHT22;11064;47.102;15.452;2022-07-17T14:53:50;26.30;55.50
21805;DHT22;11064;47.102;15.452;2022-07-17T14:56:16;26.30;55.50
21805;DHT22;11064;47.102;15.452;2022-07-17T14:58:42;26.40;55.60
21805;DHT22;11064;47.102;15.452;2022-07-17T15:01:08;26.50;55.70
21805;DHT22;11064;47.102;15.452;2022-07-17T15:03:34;26.60;56.60
21805;DHT22;11064;47.102;15.452;2022-07-17T15:05:59;26.60;55.50
21805;DHT22;11064;47.102;15.452;2022-07-17T15:08:25;26.70;55.50
21805;DHT22;11064;47.102;15.452;2022-07-17T15:10:51;26.30;55.80
21805;DHT22;11064;47.102;15.452;2022-07-17T15:13:17;26.20;56.20
21805;DHT22;11064;47.102;15.452;2022-07-17T15:15:42;26.30;56.60
21805;DHT22;11064;47.102;15.452;2022-07-17T15:18:08;26.40;56.40
21805;DHT22;11064;47.102;15.452;2022-07-17T15:20:34;26.30;55.80
21805;DHT22;11064;47.102;15.452;2022-07-17T15:23:01;26.20;56.00
21805;DHT22;11064;47.102;15.452;2022-07-17T15:25:27;26.20;56.00
21805;DHT22;11064;47.102;15.452;2022-07-17T15:27:52;26.20;55.70
21805;DHT22;11064;47.102;15.452;2022-07-17T15:30:18;26.60;55.60
21805;DHT22;11064;47.102;15.452;2022-07-17T15:32:44;27.40;54.70
21805;DHT22;11064;47.102;15.452;2022-07-17T15:35:10;28.10;51.90
21805;DHT22;11064;47.102;15.452;2022-07-17T15:37:36;29.00;50.30
21805;DHT22;11064;47.102;15.452;2022-07-17T15:40:02;29.90;49.00
21805;DHT22;11064;47.102;15.452;2022-07-17T15:42:28;30.90;47.50
21805;DHT22;11064;47.102;15.452;2022-07-17T15:44:54;31.10;45.50
21805;DHT22;11064;47.102;15.452;2022-07-17T15:47:20;30.30;46.20
21805;DHT22;11064;47.102;15.452;2022-07-17T15:49:46;29.40;47.60
21805;DHT22;11064;47.102;15.452;2022-07-17T15:52:12;29.00;49.30
21805;DHT22;11064;47.102;15.452;2022-07-17T15:54:37;28.20;50.30
21805;DHT22;11064;47.102;15.452;2022-07-17T15:57:04;27.40;51.60
21805;DHT22;11064;47.102;15.452;2022-07-17T15:59:29;27.30;52.80
21805;DHT22;11064;47.102;15.452;2022-07-17T16:01:55;27.00;53.10
21805;DHT22;11064;47.102;15.452;2022-07-17T16:04:21;26.50;54.00
21805;DHT22;11064;47.102;15.452;2022-07-17T16:06:47;26.30;54.00
21805;DHT22;11064;47.102;15.452;2022-07-17T16:09:14;26.00;54.80
21805;DHT22;11064;47.102;15.452;2022-07-17T16:11:40;26.20;55.60
21805;DHT22;11064;47.102;15.452;2022-07-17T16:14:06;25.90;54.80
21805;DHT22;11064;47.102;15.452;2022-07-17T16:16:33;26.00;54.90
21805;DHT22;11064;47.102;15.452;2022-07-17T16:18:59;25.90;54.40
21805;DHT22;11064;47.102;15.452;2022-07-17T16:21:25;26.10;54.80
21805;DHT22;11064;47.102;15.452;2022-07-17T16:23:51;26.00;54.70
21805;DHT22;11064;47.102;15.452;2022-07-17T16:26:17;26.00;55.40
21805;DHT22;11064;47.102;15.452;2022-07-17T16:28:43;26.20;55.40
21805;DHT22;11064;47.102;15.452;2022-07-17T16:31:09;26.30;54.90
21805;DHT22;11064;47.102;15.452;2022-07-17T16:33:35;26.40;54.70
21805;DHT22;11064;47.102;15.452;2022-07-17T16:36:01;26.20;54.90
21805;DHT22;11064;47.102;15.452;2022-07-17T16:38:27;26.10;55.40
21805;DHT22;11064;47.102;15.452;2022-07-17T16:40:52;26.00;55.90
21805;DHT22;11064;47.102;15.452;2022-07-17T16:43:18;26.10;56.10
21805;DHT22;11064;47.102;15.452;2022-07-17T16:45:44;26.10;55.60
21805;DHT22;11064;47.102;15.452;2022-07-17T16:48:09;26.20;55.50
21805;DHT22;11064;47.102;15.452;2022-07-17T16:50:36;26.30;55.80
21805;DHT22;11064;47.102;15.452;2022-07-17T16:53:03;26.10;55.40
21805;DHT22;11064;47.102;15.452;2022-07-17T16:55:29;26.00;55.70
21805;DHT22;11064;47.102;15.452;2022-07-17T16:57:56;26.00;55.90
21805;DHT22;11064;47.102;15.452;2022-07-17T17:00:21;26.00;56.10
21805;DHT22;11064;47.102;15.452;2022-07-17T17:02:47;25.90;57.10
21805;DHT22;11064;47.102;15.452;2022-07-17T17:05:13;25.60;57.40
21805;DHT22;11064;47.102;15.452;2022-07-17T17:07:39;25.20;57.50
21805;DHT22;11064;47.102;15.452;2022-07-17T17:10:06;24.90;58.50
21805;DHT22;11064;47.102;15.452;2022-07-17T17:12:32;24.60;59.20
21805;DHT22;11064;47.102;15.452;2022-07-17T17:14:58;24.40;60.20
21805;DHT22;11064;47.102;15.452;2022-07-17T17:17:24;24.30;60.90
21805;DHT22;11064;47.102;15.452;2022-07-17T17:19:50;24.00;61.70
21805;DHT22;11064;47.102;15.452;2022-07-17T17:22:15;24.10;62.40
21805;DHT22;11064;47.102;15.452;2022-07-17T17:24:41;24.30;61.70
21805;DHT22;11064;47.102;15.452;2022-07-17T17:27:07;24.40;61.10
21805;DHT22;11064;47.102;15.452;2022-07-17T17:29:33;24.50;60.10
21805;DHT22;11064;47.102;15.452;2022-07-17T17:32:01;24.40;60.10
21805;DHT22;11064;47.102;15.452;2022-07-17T17:34:27;24.20;60.50
21805;DHT22;11064;47.102;15.452;2022-07-17T17:36:53;23.90;62.40
21805;DHT22;11064;47.102;15.452;2022-07-17T17:39:20;23.80;64.00
21805;DHT22;11064;47.102;15.452;2022-07-17T17:41:45;23.60;64.50
21805;DHT22;11064;47.102;15.452;2022-07-17T17:44:11;23.40;65.00
21805;DHT22;11064;47.102;15.452;2022-07-17T17:46:37;23.20;65.00
21805;DHT22;11064;47.102;15.452;2022-07-17T17:49:03;23.00;66.50
21805;DHT22;11064;47.102;15.452;2022-07-17T17:51:29;22.80;67.50
21805;DHT22;11064;47.102;15.452;2022-07-17T17:53:55;22.60;69.20
21805;DHT22;11064;47.102;15.452;2022-07-17T17:56:21;22.50;69.60
21805;DHT22;11064;47.102;15.452;2022-07-17T17:58:46;22.30;70.70
21805;DHT22;11064;47.102;15.452;2022-07-17T18:01:12;22.10;72.50
21805;DHT22;11064;47.102;15.452;2022-07-17T18:03:38;21.90;72.80
21805;DHT22;11064;47.102;15.452;2022-07-17T18:06:04;21.80;73.60
21805;DHT22;11064;47.102;15.452;2022-07-17T18:08:30;21.70;74.90
21805;DHT22;11064;47.102;15.452;2022-07-17T18:10:57;21.60;75.60
21805;DHT22;11064;47.102;15.452;2022-07-17T18:13:25;21.40;76.10
21805;DHT22;11064;47.102;15.452;2022-07-17T18:15:51;21.30;76.80
21805;DHT22;11064;47.102;15.452;2022-07-17T18:18:16;21.10;77.70
21805;DHT22;11064;47.102;15.452;2022-07-17T18:20:42;21.00;79.00
21805;DHT22;11064;47.102;15.452;2022-07-17T18:23:08;20.80;80.30
21805;DHT22;11064;47.102;15.452;2022-07-17T18:25:35;20.70;81.00
21805;DHT22;11064;47.102;15.452;2022-07-17T18:28:01;20.60;82.10
21805;DHT22;11064;47.102;15.452;2022-07-17T18:30:26;20.40;83.40
21805;DHT22;11064;47.102;15.452;2022-07-17T18:32:53;20.30;85.00
21805;DHT22;11064;47.102;15.452;2022-07-17T18:35:20;20.20;86.20
21805;DHT22;11064;47.102;15.452;2022-07-17T18:37:46;20.10;86.90
21805;DHT22;11064;47.102;15.452;2022-07-17T18:40:12;20.00;87.30
21805;DHT22;11064;47.102;15.452;2022-07-17T18:42:38;19.90;87.80
21805;DHT22;11064;47.102;15.452;2022-07-17T18:45:06;19.80;88.90
21805;DHT22;11064;47.102;15.452;2022-07-17T18:47:33;19.60;89.90
21805;DHT22;11064;47.102;15.452;2022-07-17T18:49:58;19.50;90.50
21805;DHT22;11064;47.102;15.452;2022-07-17T18:52:24;19.40;91.40
21805;DHT22;11064;47.102;15.452;2022-07-17T18:54:50;19.40;91.50
21805;DHT22;11064;47.102;15.452;2022-07-17T18:57:16;19.30;91.90
21805;DHT22;11064;47.102;15.452;2022-07-17T18:59:42;19.20;93.10
21805;DHT22;11064;47.102;15.452;2022-07-17T19:02:08;19.00;93.80
21805;DHT22;11064;47.102;15.452;2022-07-17T19:04:34;19.00;95.00
21805;DHT22;11064;47.102;15.452;2022-07-17T19:07:00;18.90;95.80
21805;DHT22;11064;47.102;15.452;2022-07-17T19:09:26;19.00;96.00
21805;DHT22;11064;47.102;15.452;2022-07-17T19:11:51;18.90;96.10
21805;DHT22;11064;47.102;15.452;2022-07-17T19:14:17;18.90;96.90
21805;DHT22;11064;47.102;15.452;2022-07-17T19:16:43;18.80;96.90
21805;DHT22;11064;47.102;15.452;2022-07-17T19:19:12;18.70;96.90
21805;DHT22;11064;47.102;15.452;2022-07-17T19:21:37;18.70;97.90
21805;DHT22;11064;47.102;15.452;2022-07-17T19:24:03;18.70;97.40
21805;DHT22;11064;47.102;15.452;2022-07-17T19:26:29;18.70;97.80
21805;DHT22;11064;47.102;15.452;2022-07-17T19:28:55;18.70;98.50
21805;DHT22;11064;47.102;15.452;2022-07-17T19:31:21;18.70;99.20
21805;DHT22;11064;47.102;15.452;2022-07-17T19:33:47;18.60;99.20
21805;DHT22;11064;47.102;15.452;2022-07-17T19:36:14;18.60;99.50
21805;DHT22;11064;47.102;15.452;2022-07-17T19:38:39;18.50;99.80
21805;DHT22;11064;47.102;15.452;2022-07-17T19:41:06;18.40;99.90
21805;DHT22;11064;47.102;15.452;2022-07-17T19:43:32;18.40;99.90
21805;DHT22;11064;47.102;15.452;2022-07-17T19:45:58;18.30;99.90
21805;DHT22;11064;47.102;15.452;2022-07-17T19:48:23;18.20;99.90
21805;DHT22;11064;47.102;15.452;2022-07-17T19:50:49;18.10;99.90
21805;DHT22;11064;47.102;15.452;2022-07-17T19:53:15;18.10;99.90
21805;DHT22;11064;47.102;15.452;2022-07-17T19:55:41;18.00;99.90
21805;DHT22;11064;47.102;15.452;2022-07-17T19:58:26;18.00;99.90
21805;DHT22;11064;47.102;15.452;2022-07-17T20:00:52;17.90;99.90
21805;DHT22;11064;47.102;15.452;2022-07-17T20:03:18;17.90;99.90
21805;DHT22;11064;47.102;15.452;2022-07-17T20:05:45;17.90;99.90
21805;DHT22;11064;47.102;15.452;2022-07-17T20:08:10;17.90;99.90
21805;DHT22;11064;47.102;15.452;2022-07-17T20:10:36;17.80;99.90
21805;DHT22;11064;47.102;15.452;2022-07-17T20:13:02;17.70;99.90
21805;DHT22;11064;47.102;15.452;2022-07-17T20:15:28;17.70;99.90
21805;DHT22;11064;47.102;15.452;2022-07-17T20:17:54;17.90;99.90
21805;DHT22;11064;47.102;15.452;2022-07-17T20:20:20;17.90;99.90
21805;DHT22;11064;47.102;15.452;2022-07-17T20:22:46;17.80;99.90
21805;DHT22;11064;47.102;15.452;2022-07-17T20:25:11;17.70;99.90
21805;DHT22;11064;47.102;15.452;2022-07-17T20:27:37;17.70;99.90
21805;DHT22;11064;47.102;15.452;2022-07-17T20:30:04;17.80;99.90
21805;DHT22;11064;47.102;15.452;2022-07-17T20:32:30;17.80;99.90
21805;DHT22;11064;47.102;15.452;2022-07-17T20:34:56;17.90;99.90
21805;DHT22;11064;47.102;15.452;2022-07-17T20:37:22;17.90;99.90
21805;DHT22;11064;47.102;15.452;2022-07-17T20:39:48;17.80;99.90
21805;DHT22;11064;47.102;15.452;2022-07-17T20:42:14;17.80;99.90
21805;DHT22;11064;47.102;15.452;2022-07-17T20:44:40;17.80;99.90